Time;durP1;ratioP1;P1;durP2;ratioP2;P2;SDS_P1;SDS_P2;PMS_P1;PMS_P2;Temp;Humidity;BMP_temperature;BMP_pressure;BME280_temperature;BME280_humidity;BME280_pressure;Samples;Min_cycle;Max_cycle;Signal;HPM_P1;HPM_P2
2023/10/09 00:03:00;;;;;;;8.73;7.20;;;20.70;72.00;21.50;101275.00;;;;5087322;28;20184;-46
2023/10/09 00:08:34;;;;;;;8.37;7.43;;;20.60;71.90;21.50;101279.00;;;;5087498;28;20684;-46
2023/10/09 00:11:13;;;;;;;8.80;7.10;;;20.60;71.90;21.50;101272.00;;;;5086938;28;20611;-46
2023/10/09 00:13:48;;;;;;;9.47;7.50;;;20.60;71.90;21.50;101278.00;;;;5086967;28;20275;-46
2023/10/09 00:16:23;;;;;;;9.03;7.23;;;20.60;71.90;21.50;101271.00;;;;5086721;28;20290;-46
2023/10/09 00:18:50;;;;;;;8.00;6.80;;;20.60;71.90;21.50;101270.00;;;;5086806;28;20665;-46
2023/10/09 00:21:20;;;;;;;7.23;6.53;;;20.60;71.90;21.50;101271.00;;;;5087394;28;20212;-46
2023/10/09 00:23:52;;;;;;;7.50;6.60;;;20.60;71.90;21.50;101212.00;;;;5086736;28;20216;-46
2023/10/09 00:26:21;;;;;;;7.80;6.90;;;20.60;71.90;21.50;101275.00;;;;5085483;28;20199;-45
2023/10/09 00:28:47;;;;;;;8.93;6.90;;;20.60;71.90;21.50;101265.00;;;;5086816;28;20263;-46
2023/10/09 00:31:15;;;;;;;7.60;6.80;;;20.60;72.00;21.50;101257.00;;;;5087170;28;20809;-45
2023/10/09 00:33:43;;;;;;;8.13;7.33;;;20.60;72.00;21.40;101269.00;;;;5086944;28;20176;-47
2023/10/09 00:36:09;;;;;;;7.03;6.37;;;20.50;71.80;21.40;101257.00;;;;5087244;28;20690;-46
2023/10/09 00:38:46;;;;;;;7.47;6.70;;;20.50;71.80;21.40;101268.00;;;;5086445;28;20216;-45
2023/10/09 00:41:19;;;;;;;7.93;7.10;;;20.50;71.90;21.40;101255.00;;;;5103006;28;20168;-47
2023/10/09 00:43:45;;;;;;;7.77;6.83;;;20.50;71.80;21.40;101254.00;;;;5096461;28;20204;-47
2023/10/09 00:49:01;;;;;;;7.43;6.73;;;20.50;72.00;21.30;101249.00;;;;5085848;28;20180;-46
2023/10/09 00:51:27;;;;;;;7.43;6.50;;;20.40;71.80;21.30;101239.00;;;;5088099;28;20205;-47
2023/10/09 00:53:58;;;;;;;7.97;7.17;;;20.50;71.80;21.30;101237.00;;;;5071629;28;20207;-47
2023/10/09 00:59:00;;;;;;;7.30;6.60;;;20.40;71.60;21.30;101241.00;;;;5086863;28;20210;-46
2023/10/09 01:01:39;;;;;;;8.03;6.60;;;20.30;71.60;21.30;101237.00;;;;5052211;28;20571;-46
2023/10/09 01:04:11;;;;;;;7.60;6.73;;;20.40;71.70;21.20;101235.00;;;;5086581;28;20255;-46
2023/10/09 01:06:43;;;;;;;7.10;6.40;;;20.40;71.60;21.30;101224.00;;;;5086360;28;20280;-47
2023/10/09 01:09:13;;;;;;;7.17;6.47;;;20.40;71.70;21.20;101229.00;;;;5078495;28;20264;-46
2023/10/09 01:12:02;;;;;;;7.10;6.40;;;20.40;71.60;21.30;101232.00;;;;5086645;28;20207;-46
2023/10/09 01:14:28;;;;;;;7.37;6.50;;;20.40;71.50;21.20;101228.00;;;;5086575;28;20199;-47
2023/10/09 01:16:56;;;;;;;6.50;5.83;;;20.30;71.40;21.20;101198.00;;;;5086335;28;20200;-47
2023/10/09 01:19:27;;;;;;;7.33;6.63;;;20.30;71.40;21.00;101215.00;;;;5035020;28;20194;-46
2023/10/09 01:21:54;;;;;;;6.60;5.90;;;20.30;71.50;21.20;101214.00;;;;5086582;28;20198;-47
2023/10/09 01:24:20;;;;;;;7.17;6.23;;;20.30;71.50;21.20;101213.00;;;;5086892;28;20701;-47
2023/10/09 01:26:46;;;;;;;8.00;6.47;;;20.30;71.40;21.20;101212.00;;;;5087804;28;20192;-46
2023/10/09 01:29:19;;;;;;;6.53;5.93;;;20.30;71.40;21.20;101205.00;;;;5087489;28;20195;-46
2023/10/09 01:31:56;;;;;;;7.67;6.20;;;20.30;71.40;21.20;101204.00;;;;5086214;28;20180;-47
2023/10/09 01:37:25;;;;;;;6.70;6.10;;;20.20;71.20;21.10;101187.00;;;;5086480;28;20287;-45
2023/10/09 01:39:53;;;;;;;7.13;6.10;;;20.30;71.40;20.90;101195.00;;;;5086177;28;20212;-45
2023/10/09 01:42:34;;;;;;;6.03;5.43;;;20.20;71.20;21.10;101189.00;;;;5086224;28;20245;-45
2023/10/09 01:45:11;;;;;;;6.57;5.97;;;20.20;71.30;21.10;101187.00;;;;5085657;28;20201;-46
2023/10/09 01:47:37;;;;;;;6.53;5.93;;;20.20;71.20;21.10;101182.00;;;;5086238;28;20206;-46
2023/10/09 01:50:22;;;;;;;6.63;5.60;;;20.30;71.30;21.10;101182.00;;;;5089544;28;20181;-46
2023/10/09 01:52:47;;;;;;;6.43;5.83;;;20.20;71.20;21.10;101186.00;;;;5089906;28;20191;-47
2023/10/09 01:55:27;;;;;;;6.03;5.43;;;20.20;71.10;21.10;101190.00;;;;5089736;28;20743;-47
2023/10/09 01:57:53;;;;;;;6.00;5.50;;;20.20;71.10;21.10;101196.00;;;;5089633;28;20186;-47
2023/10/09 02:00:23;;;;;;;6.70;5.97;;;20.20;71.10;21.10;101197.00;;;;5089696;28;20180;-46
2023/10/09 02:02:50;;;;;;;6.10;5.60;;;20.20;71.10;21.10;101193.00;;;;5089693;28;20862;-46
2023/10/09 02:07:51;;;;;;;6.20;5.60;;;20.20;71.20;21.10;101196.00;;;;5089535;28;20177;-47
2023/10/09 02:13:11;;;;;;;7.57;6.00;;;20.20;71.20;21.00;101206.00;;;;5089677;28;20179;-47
2023/10/09 02:21:28;;;;;;;5.90;5.40;;;20.20;71.30;21.00;101210.00;;;;5088381;28;20203;-46
2023/10/09 02:23:51;;;;;;;6.33;5.77;;;20.20;71.30;21.00;101214.00;;;;5085372;28;20216;-47
2023/10/09 02:26:40;;;;;;;6.63;5.60;;;20.20;71.40;21.00;101216.00;;;;5089149;28;20193;-47
2023/10/09 02:29:18;;;;;;;5.77;5.20;;;20.10;71.30;21.00;101207.00;;;;5086991;28;20181;-46
2023/10/09 02:31:47;;;;;;;5.60;5.10;;;20.10;71.30;21.00;101213.00;;;;5089669;28;20180;-46
2023/10/09 02:34:14;;;;;;;5.73;5.23;;;20.10;71.20;20.90;101209.00;;;;5089327;28;20651;-49
2023/10/09 02:36:42;;;;;;;5.87;4.90;;;20.10;71.20;20.90;101192.00;;;;5095846;28;20219;-47
2023/10/09 02:39:23;;;;;;;5.90;5.40;;;20.10;71.10;20.90;101193.00;;;;5107194;28;20185;-47
2023/10/09 02:41:58;;;;;;;6.20;5.60;;;20.10;71.00;20.90;101196.00;;;;5073046;28;20573;-46
2023/10/09 02:44:26;;;;;;;5.90;5.30;;;20.00;70.90;20.90;101200.00;;;;5089468;28;20210;-46
2023/10/09 02:46:57;;;;;;;6.10;5.60;;;20.10;71.10;20.90;101203.00;;;;5089779;28;20204;-47
2023/10/09 02:49:27;;;;;;;6.60;5.77;;;20.00;70.80;20.90;101199.00;;;;5090964;28;20541;-46
2023/10/09 02:51:53;;;;;;;5.57;5.07;;;20.00;70.90;20.80;101192.00;;;;5105738;28;20202;-46
2023/10/09 02:56:55;;;;;;;5.80;5.27;;;20.00;71.00;20.80;101188.00;;;;5087762;28;20227;-45
2023/10/09 02:59:24;;;;;;;5.53;5.00;;;20.00;71.00;20.80;101190.00;;;;5088799;28;20221;-46
2023/10/09 03:01:52;;;;;;;5.40;4.90;;;20.00;70.90;20.80;101189.00;;;;5087684;28;20185;-46
2023/10/09 03:04:19;;;;;;;5.57;5.07;;;20.00;70.90;20.80;101192.00;;;;5089851;28;20218;-46
2023/10/09 03:06:50;;;;;;;6.20;5.30;;;20.00;70.90;20.80;101186.00;;;;5089463;28;20192;-47
2023/10/09 03:09:18;;;;;;;6.63;5.57;;;20.00;70.90;20.80;101188.00;;;;5090196;28;20173;-46
2023/10/09 03:11:53;;;;;;;5.83;5.33;;;20.00;70.90;20.80;101158.00;;;;5089743;28;20252;-46
2023/10/09 03:14:26;;;;;;;5.97;5.37;;;20.00;70.90;20.80;101177.00;;;;5051032;28;20168;-47
2023/10/09 03:16:52;;;;;;;6.00;5.23;;;20.00;71.00;20.80;101177.00;;;;5089466;28;20252;-46
2023/10/09 03:19:18;;;;;;;5.77;5.27;;;19.90;70.90;20.80;101173.00;;;;5089880;28;20186;-45
2023/10/09 03:21:44;;;;;;;6.13;5.10;;;20.00;70.90;20.70;101181.00;;;;5086687;28;20175;-47
2023/10/09 03:24:11;;;;;;;5.83;5.23;;;19.90;70.80;20.60;101183.00;;;;5083864;28;20246;-49
2023/10/09 03:26:37;;;;;;;5.93;5.37;;;19.90;70.80;20.80;101178.00;;;;5086726;28;20193;-46
2023/10/09 03:29:09;;;;;;;5.60;5.10;;;19.90;70.80;20.50;101177.00;;;;5077418;28;20195;-47
2023/10/09 03:31:39;;;;;;;7.63;5.30;;;19.90;70.70;20.70;101175.00;;;;5088917;28;20224;-46
2023/10/09 03:34:06;;;;;;;7.30;4.90;;;19.90;70.90;20.70;101168.00;;;;5078832;28;20200;-47
2023/10/09 03:36:37;;;;;;;5.60;5.10;;;19.90;71.10;20.80;101172.00;;;;5079575;28;20204;-47
2023/10/09 03:42:50;;;;;;;8.50;5.13;;;19.90;71.10;20.70;101160.00;;;;5070204;22;20720;-51
2023/10/09 03:45:24;;;;;;;6.17;5.03;;;19.90;71.00;20.70;101159.00;;;;5058113;28;20216;-51
2023/10/09 03:48:21;;;;;;;5.97;5.30;;;19.90;71.00;20.70;101161.00;;;;5075101;28;20237;-49
2023/10/09 03:50:43;;;;;;;5.60;5.10;;;19.90;71.00;20.70;101163.00;;;;5066389;28;20679;-50
2023/10/09 03:53:11;;;;;;;5.83;5.23;;;19.90;71.00;20.70;101164.00;;;;5082899;28;20210;-49
2023/10/09 03:55:40;;;;;;;5.87;5.27;;;19.80;70.80;20.60;101167.00;;;;5087357;28;20169;-50
2023/10/09 03:58:18;;;;;;;6.40;5.33;;;19.80;70.90;20.70;101174.00;;;;5089879;28;20185;-50
2023/10/09 04:00:49;;;;;;;5.30;4.80;;;19.80;70.80;20.60;101163.00;;;;5082960;28;20229;-50
2023/10/09 04:03:15;;;;;;;6.20;5.10;;;19.80;70.70;20.60;101161.00;;;;5090972;28;20261;-50
2023/10/09 04:05:42;;;;;;;5.87;5.23;;;19.80;70.80;20.60;101154.00;;;;5090921;28;20276;-50
2023/10/09 04:08:19;;;;;;;6.00;5.40;;;19.80;70.90;20.60;101147.00;;;;5089503;28;20495;-50
2023/10/09 04:10:51;;;;;;;5.77;5.17;;;19.80;70.80;20.60;101152.00;;;;5082992;28;20539;-50
2023/10/09 04:13:22;;;;;;;6.27;5.17;;;19.80;70.70;20.60;101138.00;;;;5090486;28;20178;-51
2023/10/09 04:15:53;;;;;;;6.00;5.27;;;19.70;70.60;20.60;101136.00;;;;5082802;28;20203;-51
2023/10/09 04:18:28;;;;;;;6.07;5.23;;;19.80;70.80;20.60;101142.00;;;;5077862;28;20710;-51
2023/10/09 04:21:18;;;;;;;5.90;5.40;;;19.80;70.90;20.60;101136.00;;;;5064115;28;20287;-52
2023/10/09 04:24:08;;;;;;;5.37;4.87;;;19.80;70.90;20.50;101141.00;;;;5084250;28;20765;-50
2023/10/09 04:26:34;;;;;;;13.33;5.83;;;19.80;71.00;20.50;101121.00;;;;5091072;28;20173;-50
2023/10/09 04:29:02;;;;;;;9.07;5.40;;;19.70;70.90;20.50;101136.00;;;;5109713;28;20180;-50
2023/10/09 04:31:31;;;;;;;7.97;5.43;;;19.70;71.00;20.50;101140.00;;;;5090900;28;20180;-50
2023/10/09 04:36:56;;;;;;;10.70;6.20;;;19.70;71.00;20.50;101139.00;;;;5089989;28;20266;-50
2023/10/09 04:47:38;;;;;;;5.93;5.20;;;19.70;71.10;20.50;101142.00;;;;5057192;28;20205;-51
2023/10/09 04:50:14;;;;;;;7.60;5.23;;;19.70;71.10;20.50;101145.00;;;;5089182;28;20202;-50
2023/10/09 05:02:56;;;;;;;7.17;6.47;;;19.60;71.10;20.40;101131.00;;;;5088630;28;20185;-51
2023/10/09 05:08:20;;;;;;;7.00;6.30;;;19.60;71.10;20.40;101132.00;;;;5088287;28;20192;-51
2023/10/09 05:16:15;;;;;;;6.63;5.90;;;19.60;71.30;20.40;101116.00;;;;5089485;28;20238;-50
2023/10/09 05:18:56;;;;;;;7.70;5.57;;;19.60;71.30;20.40;101106.00;;;;5088793;28;20207;-50
2023/10/09 05:35:05;;;;;;;6.83;5.83;;;19.60;71.40;20.40;101122.00;;;;5090692;28;20191;-51
2023/10/09 05:37:26;;;;;;;9.00;6.20;;;19.60;71.50;20.40;101119.00;;;;5081906;28;20240;-50
2023/10/09 05:47:53;;;;;;;6.43;5.80;;;19.60;71.60;20.30;101120.00;;;;5092620;28;20259;-49
2023/10/09 05:55:48;;;;;;;6.60;6.00;;;19.60;71.60;20.30;101161.00;;;;5088557;28;20233;-50
2023/10/09 06:04:04;;;;;;;6.07;5.47;;;19.50;71.60;20.30;101161.00;;;;5091940;28;20209;-50
2023/10/09 06:06:32;;;;;;;6.80;5.73;;;19.50;71.80;20.30;101159.00;;;;5091843;28;20266;-50
2023/10/09 06:11:38;;;;;;;5.87;5.27;;;19.50;71.70;20.30;101157.00;;;;5086173;28;20174;-51
2023/10/09 06:14:04;;;;;;;5.57;5.07;;;19.50;71.70;20.20;101160.00;;;;5084881;28;20246;-52
2023/10/09 06:16:42;;;;;;;6.20;5.60;;;19.50;71.70;20.30;101150.00;;;;5053823;28;20670;-50
2023/10/09 06:19:12;;;;;;;6.37;5.77;;;19.50;71.70;20.20;101144.00;;;;5088040;28;20208;-49
2023/10/09 06:21:39;;;;;;;6.07;5.47;;;19.50;71.80;20.20;101148.00;;;;5092053;28;20192;-50
2023/10/09 06:24:14;;;;;;;6.03;5.27;;;19.40;71.60;20.20;101161.00;;;;5104437;28;20207;-51
2023/10/09 06:27:07;;;;;;;5.60;5.00;;;19.40;71.60;20.20;101175.00;;;;5085613;28;20177;-52
2023/10/09 06:34:45;;;;;;;7.03;5.80;;;19.40;71.70;20.20;101185.00;;;;5090005;28;20189;-49
2023/10/09 06:45:08;;;;;;;5.93;5.33;;;19.40;71.90;20.20;101214.00;;;;5089594;28;20208;-51
2023/10/09 06:47:55;;;;;;;5.70;5.20;;;19.40;71.80;20.20;101215.00;;;;5090941;28;20276;-49
2023/10/09 06:52:57;;;;;;;6.87;5.43;;;19.40;71.80;20.20;101222.00;;;;5089118;28;20176;-50
2023/10/09 06:55:33;;;;;;;6.17;5.57;;;19.40;71.70;20.20;101229.00;;;;5090358;28;20186;-50
2023/10/09 06:58:09;;;;;;;5.57;5.07;;;19.40;71.70;20.20;101234.00;;;;5090995;28;20206;-50
2023/10/09 07:00:54;;;;;;;6.03;5.43;;;19.40;71.70;20.20;101227.00;;;;5089801;28;20227;-50
2023/10/09 07:03:29;;;;;;;5.80;5.30;;;19.40;71.70;20.20;101228.00;;;;5089135;28;20260;-49
2023/10/09 07:06:24;;;;;;;5.90;5.07;;;19.40;71.60;20.20;101231.00;;;;5090959;28;20181;-50
2023/10/09 07:15:01;;;;;;;5.33;4.83;;;19.30;71.60;20.20;101216.00;;;;5093130;28;20239;-50
2023/10/09 07:17:44;;;;;;;6.17;5.20;;;19.30;71.60;20.20;101239.00;;;;5089896;28;20199;-50
2023/10/09 07:20:14;;;;;;;10.00;4.97;;;19.40;71.80;20.10;101226.00;;;;5080024;28;20207;-49
2023/10/09 07:23:32;;;;;;;11.20;5.20;;;19.30;71.90;20.20;101213.00;;;;5090000;28;20195;-49
2023/10/09 07:25:40;;;;;;;10.27;5.10;;;19.30;72.20;20.20;101219.00;;;;5075105;28;20222;-51
2023/10/09 07:28:18;;;;;;;8.37;5.33;;;19.30;72.70;20.20;101233.00;;;;5085277;28;20195;-53
2023/10/09 07:30:46;;;;;;;10.00;5.63;;;19.30;73.20;20.20;101242.00;;;;5084837;28;20269;-51
2023/10/09 07:35:47;;;;;;;9.97;5.37;;;19.40;73.10;20.20;101222.00;;;;5090432;28;20665;-51
2023/10/09 07:38:19;;;;;;;8.77;5.37;;;19.50;73.10;20.30;101224.00;;;;5089980;28;20180;-51
2023/10/09 07:43:38;;;;;;;7.50;5.30;;;19.70;72.80;20.30;101218.00;;;;5069138;28;20207;-51
2023/10/09 07:48:54;;;;;;;8.33;5.30;;;19.80;72.60;20.40;101233.00;;;;5082996;28;20200;-51
2023/10/09 07:51:23;;;;;;;5.33;4.40;;;19.80;72.60;20.40;101244.00;;;;5090085;28;20174;-51
2023/10/09 07:54:07;;;;;;;7.37;4.60;;;19.80;72.60;20.50;101244.00;;;;5089858;28;20214;-51
2023/10/09 07:56:45;;;;;;;9.57;5.20;;;19.80;73.50;20.50;101240.00;;;;5089750;28;20178;-51
2023/10/09 07:59:11;;;;;;;6.33;5.03;;;19.80;72.60;20.50;101237.00;;;;5089972;28;20250;-52
2023/10/09 08:02:04;;;;;;;7.40;4.70;;;19.80;72.70;20.50;101230.00;;;;5089569;28;20231;-51
2023/10/09 08:04:48;;;;;;;4.73;4.33;;;19.90;72.70;20.50;101237.00;;;;5089492;28;20627;-52
2023/10/09 08:07:19;;;;;;;7.77;4.90;;;19.90;72.80;20.50;101246.00;;;;5112614;28;20236;-51
2023/10/09 08:09:48;;;;;;;5.50;4.80;;;19.90;72.80;20.50;101225.00;;;;5089993;28;20208;-51
2023/10/09 08:12:15;;;;;;;5.10;4.60;;;19.90;72.90;20.60;101214.00;;;;5090194;28;20182;-51
2023/10/09 08:14:42;;;;;;;5.27;4.43;;;19.90;72.80;20.60;101214.00;;;;5077596;28;20446;-51
2023/10/09 08:17:15;;;;;;;7.97;4.67;;;19.90;72.90;20.60;101196.00;;;;5069678;28;20212;-51
2023/10/09 08:19:54;;;;;;;6.37;4.90;;;19.90;72.90;20.60;101208.00;;;;5099318;28;20210;-55
2023/10/09 08:24:57;;;;;;;5.70;4.50;;;19.90;73.10;20.60;101220.00;;;;5088260;28;20451;-51
2023/10/09 08:32:40;;;;;;;6.47;4.40;;;19.90;73.20;20.60;101210.00;;;;5089447;28;20181;-52
2023/10/09 08:37:51;;;;;;;5.87;4.47;;;19.80;73.10;20.60;101197.00;;;;5088917;28;20183;-50
2023/10/09 08:40:20;;;;;;;4.50;4.10;;;19.90;73.20;20.60;101248.00;;;;5079967;28;20198;-51
2023/10/09 08:42:53;;;;;;;4.70;4.30;;;19.90;73.20;20.60;101274.00;;;;5069057;28;20212;-51
2023/10/09 08:45:27;;;;;;;5.40;4.40;;;19.90;73.20;20.60;101275.00;;;;5068244;28;20288;-51
2023/10/09 08:47:56;;;;;;;4.47;4.07;;;19.90;73.20;20.60;101276.00;;;;5089326;28;20184;-52
2023/10/09 08:50:28;;;;;;;4.60;4.20;;;19.90;73.20;20.60;101300.00;;;;5088845;28;20454;-51
2023/10/09 08:52:53;;;;;;;4.57;4.10;;;19.90;73.30;20.60;101300.00;;;;5089184;28;20184;-51
2023/10/09 08:55:19;;;;;;;4.57;4.17;;;19.90;73.30;20.70;101303.00;;;;5090212;28;20184;-52
2023/10/09 08:57:46;;;;;;;5.00;4.50;;;19.80;73.30;20.70;101278.00;;;;5089432;28;20635;-51
2023/10/09 09:00:33;;;;;;;5.07;4.20;;;19.90;73.40;20.70;101276.00;;;;5084494;28;20223;-51
2023/10/09 09:03:00;;;;;;;4.50;4.10;;;19.80;73.40;20.60;101257.00;;;;5071070;28;20192;-51
2023/10/09 09:05:28;;;;;;;4.63;4.23;;;19.80;73.40;20.60;101234.00;;;;5078097;28;20256;-51
2023/10/09 09:07:59;;;;;;;4.63;4.17;;;19.80;73.40;20.60;101198.00;;;;5069331;28;20185;-51
2023/10/09 09:10:46;;;;;;;6.40;4.23;;;19.90;73.50;20.70;101172.00;;;;5068948;28;20243;-52
2023/10/09 09:13:18;;;;;;;7.07;4.23;;;19.80;73.60;20.60;101190.00;;;;5070237;28;20184;-51
2023/10/09 09:15:48;;;;;;;5.40;3.80;;;19.90;73.60;20.70;101202.00;;;;5082065;28;20682;-51
2023/10/09 09:18:17;;;;;;;4.30;3.87;;;19.90;73.60;20.70;101195.00;;;;5082400;28;20177;-50
2023/10/09 09:20:46;;;;;;;5.83;4.03;;;19.90;73.60;20.70;101189.00;;;;5080307;28;20192;-51
2023/10/09 09:23:12;;;;;;;5.57;3.80;;;19.90;73.50;20.70;101195.00;;;;5084770;28;20646;-52
2023/10/09 09:25:46;;;;;;;6.50;4.00;;;19.90;73.60;20.70;101184.00;;;;5076602;28;20208;-50
2023/10/09 09:28:12;;;;;;;4.20;3.80;;;19.90;73.70;20.70;101173.00;;;;5059544;28;20205;-50
2023/10/09 09:30:40;;;;;;;5.37;4.00;;;19.90;73.60;20.70;101160.00;;;;5083329;28;20196;-50
2023/10/09 09:33:26;;;;;;;5.23;3.77;;;19.90;73.70;20.70;101162.00;;;;5068098;28;20294;-50
2023/10/09 09:35:58;;;;;;;4.53;3.90;;;19.90;73.80;20.70;101155.00;;;;5078847;28;20184;-50
2023/10/09 09:38:27;;;;;;;6.17;4.13;;;19.90;73.80;20.70;101153.00;;;;5067423;28;20684;-51
2023/10/09 09:41:02;;;;;;;4.30;3.90;;;19.90;73.80;20.70;101154.00;;;;5073684;28;20200;-50
2023/10/09 09:43:30;;;;;;;5.77;3.93;;;19.90;73.90;20.70;101159.00;;;;5068180;28;20219;-51
2023/10/09 09:45:56;;;;;;;5.47;4.07;;;19.90;73.90;20.70;101170.00;;;;5067452;28;20573;-51
2023/10/09 09:48:23;;;;;;;6.77;3.90;;;19.90;73.90;20.70;101164.00;;;;5066914;28;20552;-49
2023/10/09 09:50:54;;;;;;;5.83;3.53;;;19.90;73.90;20.70;101166.00;;;;5074600;28;20187;-49
2023/10/09 09:53:23;;;;;;;4.70;3.87;;;19.90;73.90;20.70;101170.00;;;;5068088;28;20268;-49
2023/10/09 09:55:57;;;;;;;4.27;3.67;;;19.90;74.00;20.70;101172.00;;;;5083715;28;20193;-51
2023/10/09 09:58:44;;;;;;;4.57;3.63;;;19.90;74.00;20.80;101178.00;;;;5067653;28;20203;-50
2023/10/09 10:01:34;;;;;;;5.40;3.73;;;19.90;74.00;20.70;101157.00;;;;5070854;28;20168;-50
2023/10/09 10:04:11;;;;;;;5.03;3.60;;;19.90;74.20;20.80;101166.00;;;;5047237;28;20220;-51
2023/10/09 10:06:39;;;;;;;7.00;4.10;;;19.90;74.20;20.70;101165.00;;;;5103173;28;20214;-51
2023/10/09 10:09:07;;;;;;;5.70;3.73;;;19.90;74.20;20.70;101091.00;;;;5087032;28;20290;-54
2023/10/09 10:11:46;;;;;;;7.67;3.90;;;19.90;74.60;20.80;101172.00;;;;5090930;28;20201;-50
2023/10/09 10:14:48;;;;;;;7.60;4.03;;;19.90;74.60;20.80;101174.00;;;;5091947;28;20183;-50
2023/10/09 10:17:16;;;;;;;5.10;3.87;;;19.90;74.80;20.80;101174.00;;;;5088016;28;20696;-51
2023/10/09 10:22:51;;;;;;;6.63;4.03;;;20.00;74.90;20.80;101175.00;;;;5058442;28;20201;-50
2023/10/09 10:25:32;;;;;;;5.93;3.80;;;20.00;75.30;20.80;101173.00;;;;5091109;28;20737;-51
2023/10/09 10:28:38;;;;;;;5.00;3.80;;;20.00;75.30;20.80;101163.00;;;;5093155;28;20544;-50
2023/10/09 10:31:08;;;;;;;6.83;3.70;;;20.00;75.30;20.80;101172.00;;;;5090509;28;20399;-51
2023/10/09 10:33:55;;;;;;;5.23;3.83;;;20.00;75.50;20.80;101160.00;;;;5070316;28;20189;-50
2023/10/09 10:36:26;;;;;;;5.43;4.10;;;20.10;75.70;20.80;101164.00;;;;5080321;28;20202;-51
2023/10/09 10:41:59;;;;;;;5.00;3.47;;;20.10;75.80;20.90;101174.00;;;;5065766;28;20553;-50
2023/10/09 10:44:38;;;;;;;7.27;3.50;;;20.10;75.90;20.90;101175.00;;;;5083895;28;20200;-51
2023/10/09 10:47:26;;;;;;;5.10;3.70;;;20.10;76.20;20.90;101182.00;;;;5079432;28;20239;-50
2023/10/09 10:50:35;;;;;;;4.30;3.90;;;20.10;76.10;20.90;101181.00;;;;5070981;28;20709;-51
2023/10/09 10:52:57;;;;;;;5.80;3.80;;;20.10;76.30;20.90;101182.00;;;;5070843;28;20633;-50
2023/10/09 10:58:00;;;;;;;4.97;3.70;;;20.20;76.50;21.00;101193.00;;;;5070880;28;20667;-50
2023/10/09 11:03:23;;;;;;;4.87;3.90;;;20.20;77.00;21.00;101201.00;;;;5089958;28;20180;-49
2023/10/09 11:05:52;;;;;;;6.10;3.87;;;20.20;77.20;21.00;101200.00;;;;5091346;28;20443;-50
2023/10/09 11:08:22;;;;;;;4.23;3.87;;;20.20;77.20;21.00;101202.00;;;;5089300;28;20214;-50
2023/10/09 11:10:50;;;;;;;4.90;3.70;;;20.30;77.60;21.10;101202.00;;;;5076907;28;20646;-51
2023/10/09 11:13:52;;;;;;;4.27;3.80;;;20.30;77.60;21.10;101201.00;;;;5057916;28;20189;-50
2023/10/09 11:16:41;;;;;;;3.83;3.43;;;20.30;77.60;21.10;101201.00;;;;5088064;28;20226;-50
2023/10/09 11:21:58;;;;;;;4.13;3.60;;;20.30;77.10;21.10;101188.00;;;;5088625;28;20180;-50
2023/10/09 11:24:34;;;;;;;4.70;3.47;;;20.30;76.80;21.10;101194.00;;;;5089557;28;20196;-51
2023/10/09 11:27:06;;;;;;;3.90;3.60;;;20.30;76.70;21.20;101160.00;;;;5084337;28;20256;-50
2023/10/09 11:32:25;;;;;;;3.93;3.50;;;20.30;76.60;21.20;101192.00;;;;5076975;28;20180;-51
2023/10/09 11:35:09;;;;;;;4.30;3.30;;;20.30;76.80;21.20;101188.00;;;;5090724;28;20660;-50
2023/10/09 11:37:43;;;;;;;5.47;3.40;;;20.30;76.70;21.20;101196.00;;;;5070814;28;20185;-50
2023/10/09 11:41:18;;;;;;;5.43;3.63;;;20.40;77.00;21.20;101190.00;;;;5083719;28;20728;-50
2023/10/09 11:43:51;;;;;;;5.70;3.20;;;20.30;76.80;21.20;101195.00;;;;5079307;28;20204;-51
2023/10/09 11:46:12;;;;;;;3.67;3.37;;;20.40;76.90;21.20;101192.00;;;;5090070;28;20193;-50
2023/10/09 11:48:46;;;;;;;6.90;3.70;;;20.40;77.90;21.30;101187.00;;;;5090087;28;20223;-49
2023/10/09 11:51:19;;;;;;;4.37;3.23;;;20.40;77.00;21.30;101190.00;;;;5090268;28;20176;-50
2023/10/09 11:53:58;;;;;;;3.73;3.43;;;20.40;77.00;21.30;101194.00;;;;5090137;28;20176;-51
2023/10/09 11:56:26;;;;;;;4.17;3.20;;;20.40;76.90;21.30;101185.00;;;;5090348;28;20173;-50
2023/10/09 11:58:53;;;;;;;3.80;3.40;;;20.40;76.80;21.30;101173.00;;;;5089929;28;20205;-50
2023/10/09 12:01:22;;;;;;;4.33;3.60;;;20.40;76.80;21.30;101178.00;;;;5089670;28;20187;-49
2023/10/09 12:03:49;;;;;;;5.60;3.40;;;20.40;76.80;21.30;101178.00;;;;5087829;28;20193;-50
2023/10/09 12:06:18;;;;;;;5.23;3.50;;;20.40;76.70;21.30;101184.00;;;;5099618;28;20252;-50
2023/10/09 12:08:47;;;;;;;3.57;3.27;;;20.40;76.80;21.40;101180.00;;;;5090287;28;20216;-51
2023/10/09 12:11:14;;;;;;;3.73;3.30;;;20.30;76.80;21.40;101174.00;;;;5090252;28;20184;-49
2023/10/09 12:13:42;;;;;;;3.40;3.10;;;20.40;77.00;21.40;101174.00;;;;5085987;28;20178;-49
2023/10/09 12:16:10;;;;;;;3.50;3.20;;;20.50;77.00;21.40;101179.00;;;;5077343;28;20208;-50
2023/10/09 12:18:39;;;;;;;3.53;3.13;;;20.50;77.00;21.40;101176.00;;;;5104111;28;20176;-53
2023/10/09 12:21:06;;;;;;;3.57;3.27;;;20.50;77.00;21.40;101187.00;;;;5074881;28;20636;-49
2023/10/09 12:23:38;;;;;;;3.50;3.20;;;20.40;76.50;21.40;101174.00;;;;5070740;28;20181;-57
2023/10/09 12:26:04;;;;;;;5.90;3.47;;;20.50;76.40;21.50;101172.00;;;;5079617;28;20233;-50
2023/10/09 12:28:32;;;;;;;3.40;3.10;;;20.50;77.00;21.50;101181.00;;;;5074537;28;20191;-50
2023/10/09 12:31:01;;;;;;;3.50;3.20;;;20.50;76.80;21.50;101166.00;;;;5067811;28;20192;-49
2023/10/09 12:33:28;;;;;;;3.87;3.50;;;20.50;77.00;21.50;101172.00;;;;5069485;28;20431;-49
2023/10/09 12:36:00;;;;;;;3.77;3.47;;;20.50;76.90;21.50;101166.00;;;;5069495;28;20185;-49
2023/10/09 12:38:31;;;;;;;3.77;3.30;;;20.50;76.80;21.50;101162.00;;;;5073062;28;20260;-51
2023/10/09 12:41:33;;;;;;;3.60;3.30;;;20.50;76.70;21.50;101157.00;;;;5085033;28;20189;-50
2023/10/09 12:43:58;;;;;;;3.60;3.30;;;20.50;76.80;21.50;101161.00;;;;5088541;28;20228;-50
2023/10/09 12:46:25;;;;;;;3.57;3.27;;;20.50;76.60;21.50;101153.00;;;;5089680;28;20183;-50
2023/10/09 12:48:54;;;;;;;3.93;3.23;;;20.60;77.00;21.50;101157.00;;;;5089422;28;20197;-50
2023/10/09 12:51:20;;;;;;;3.67;3.37;;;20.60;77.00;21.50;101151.00;;;;5089158;28;20259;-50
2023/10/09 12:53:48;;;;;;;3.73;3.43;;;20.60;76.80;21.60;101138.00;;;;5089826;28;20168;-50
2023/10/09 12:56:18;;;;;;;3.50;3.20;;;20.60;76.70;21.60;101142.00;;;;5089100;28;20545;-50
2023/10/09 12:58:52;;;;;;;3.73;3.20;;;20.60;76.60;21.60;101159.00;;;;5085462;28;20201;-50
2023/10/09 13:01:20;;;;;;;3.10;2.90;;;20.60;76.60;21.60;101160.00;;;;5081078;28;20673;-50
2023/10/09 13:03:49;;;;;;;3.87;3.20;;;20.60;76.60;21.60;101164.00;;;;5089596;28;20169;-49
2023/10/09 13:06:23;;;;;;;3.37;3.10;;;20.60;76.50;21.60;101157.00;;;;5082057;28;20260;-50
2023/10/09 13:08:49;;;;;;;3.80;3.40;;;20.60;76.50;21.60;101164.00;;;;5078315;28;20197;-50
2023/10/09 13:11:18;;;;;;;3.63;3.20;;;20.60;76.60;21.60;101173.00;;;;5069072;28;20435;-50
2023/10/09 13:13:47;;;;;;;3.27;3.00;;;20.60;76.60;21.70;101169.00;;;;5077450;28;20177;-51
2023/10/09 13:16:23;;;;;;;4.10;3.30;;;20.70;76.60;21.70;101183.00;;;;5071875;28;20233;-50
2023/10/09 13:18:50;;;;;;;3.00;2.80;;;20.70;76.60;21.70;101165.00;;;;5074691;28;20353;-50
2023/10/09 13:21:20;;;;;;;3.30;3.00;;;20.60;76.60;21.70;101176.00;;;;5088947;28;20179;-51
2023/10/09 13:23:49;;;;;;;3.30;3.00;;;20.60;76.60;21.70;101177.00;;;;5084525;28;20166;-50
2023/10/09 13:26:24;;;;;;;3.30;3.00;;;20.60;76.60;21.70;101180.00;;;;5086507;28;20690;-50
2023/10/09 13:28:53;;;;;;;3.30;3.00;;;20.60;76.40;21.70;101189.00;;;;5089271;28;20203;-50
2023/10/09 13:31:20;;;;;;;3.50;3.20;;;20.60;76.40;21.70;101188.00;;;;5070919;28;20174;-50
2023/10/09 13:33:47;;;;;;;3.40;3.07;;;20.60;76.40;21.80;101177.00;;;;5068806;28;20204;-50
2023/10/09 13:36:19;;;;;;;3.50;2.80;;;20.70;76.50;21.80;101181.00;;;;5068732;28;20182;-50
2023/10/09 13:38:48;;;;;;;3.10;2.90;;;20.70;76.50;21.80;101172.00;;;;5082571;28;20666;-50
2023/10/09 13:41:14;;;;;;;3.23;2.93;;;20.70;76.50;21.80;101165.00;;;;5074408;28;20166;-49
2023/10/09 13:43:43;;;;;;;3.30;3.00;;;20.70;76.40;21.80;101168.00;;;;5069828;28;20189;-50